Time;durP1;ratioP1;P1;durP2;ratioP2;P2;SDS_P1;SDS_P2;PMS_P1;PMS_P2;Temp;Humidity;BMP_temperature;BMP_pressure;BME280_temperature;BME280_humidity;BME280_pressure;Samples;Min_cycle;Max_cycle;Signal;HPM_P1;HPM_P2
2023/09/02 00:00:12;;;;;;;15.48;10.18;;;15.10;99.90;;;;;;5030252;28;20105;-79
2023/09/02 00:02:38;;;;;;;11.88;8.73;;;15.10;99.90;;;;;;5028575;28;20036;-79
2023/09/02 00:05:04;;;;;;;16.95;9.90;;;15.00;99.90;;;;;;5028700;28;20428;-78
2023/09/02 00:07:30;;;;;;;14.50;10.15;;;15.00;99.90;;;;;;5030150;28;20013;-79
2023/09/02 00:09:56;;;;;;;15.13;11.02;;;15.00;99.90;;;;;;5030034;28;20082;-79
2023/09/02 00:12:21;;;;;;;14.65;10.32;;;15.00;99.90;;;;;;5029962;28;20098;-78
2023/09/02 00:14:47;;;;;;;13.35;8.48;;;15.00;99.90;;;;;;5029950;28;20032;-79
2023/09/02 00:17:12;;;;;;;11.35;7.63;;;15.00;99.90;;;;;;5028963;28;20489;-74
2023/09/02 00:19:38;;;;;;;11.85;8.00;;;15.10;99.90;;;;;;5021467;28;20105;-79
2023/09/02 00:22:04;;;;;;;14.02;8.27;;;15.10;99.90;;;;;;5011702;28;20022;-79
2023/09/02 00:24:29;;;;;;;12.32;8.07;;;15.10;99.90;;;;;;5021522;28;20113;-79
2023/09/02 00:26:55;;;;;;;12.85;8.85;;;15.10;99.90;;;;;;5035407;28;20045;-74
2023/09/02 00:29:20;;;;;;;15.75;13.30;;;15.10;99.90;;;;;;5018622;28;20030;-80
2023/09/02 00:31:46;;;;;;;19.08;16.23;;;15.10;99.90;;;;;;5029253;28;20512;-74
2023/09/02 00:34:11;;;;;;;19.95;11.40;;;15.00;99.90;;;;;;5029547;28;20017;-78
2023/09/02 00:36:37;;;;;;;14.80;9.20;;;15.00;99.90;;;;;;5022112;28;20058;-79
2023/09/02 00:39:04;;;;;;;14.77;11.05;;;15.00;99.90;;;;;;5026507;28;20128;-74
2023/09/02 00:41:35;;;;;;;13.85;9.30;;;15.00;99.90;;;;;;5042551;28;20022;-74
2023/09/02 00:44:02;;;;;;;15.95;9.73;;;15.00;99.90;;;;;;5035695;28;20018;-74
2023/09/02 00:46:28;;;;;;;11.75;9.73;;;15.10;99.90;;;;;;5045942;28;20025;-73
2023/09/02 00:48:54;;;;;;;14.32;8.68;;;15.10;99.90;;;;;;5035696;28;20493;-73
2023/09/02 00:51:20;;;;;;;14.48;8.98;;;15.10;99.90;;;;;;5029309;28;20065;-74
2023/09/02 00:53:45;;;;;;;15.73;9.07;;;15.10;99.90;;;;;;5021281;28;20032;-79
2023/09/02 00:56:13;;;;;;;12.07;8.55;;;15.00;99.90;;;;;;5025079;28;20097;-73
2023/09/02 00:58:39;;;;;;;14.00;9.57;;;15.10;99.90;;;;;;5028038;28;20390;-78
2023/09/02 01:01:05;;;;;;;12.02;8.98;;;15.10;99.90;;;;;;5044953;28;20033;-74
2023/09/02 01:03:32;;;;;;;11.05;8.48;;;15.10;99.90;;;;;;5035645;28;20092;-73
2023/09/02 01:05:58;;;;;;;13.32;8.95;;;15.10;99.90;;;;;;5032485;28;20114;-73
2023/09/02 01:08:23;;;;;;;13.73;8.88;;;15.10;99.90;;;;;;5031306;28;20025;-74
2023/09/02 01:10:49;;;;;;;11.13;8.35;;;15.10;99.90;;;;;;5040349;28;20042;-74
2023/09/02 01:13:15;;;;;;;14.60;8.63;;;15.10;99.90;;;;;;5038646;28;20037;-79
2023/09/02 01:15:41;;;;;;;11.27;8.70;;;15.10;99.90;;;;;;5050897;28;20049;-79
2023/09/02 01:18:06;;;;;;;11.57;8.60;;;15.10;99.90;;;;;;5032968;28;20033;-74
2023/09/02 01:21:02;;;;;;;11.77;8.80;;;15.20;99.90;;;;;;5031226;28;20026;-73
2023/09/02 01:24:01;;;;;;;11.75;9.20;;;15.10;99.90;;;;;;5031948;28;20045;-74
2023/09/02 01:26:51;;;;;;;15.18;9.32;;;15.10;99.90;;;;;;5032307;28;20028;-73
2023/09/02 01:29:21;;;;;;;15.77;9.18;;;15.20;99.90;;;;;;5034420;28;20021;-74
2023/09/02 01:31:48;;;;;;;13.48;8.98;;;15.20;99.90;;;;;;5018098;28;20030;-74
2023/09/02 01:34:16;;;;;;;13.40;8.70;;;15.20;99.90;;;;;;5032060;28;20022;-74
2023/09/02 01:36:43;;;;;;;15.02;9.07;;;15.20;99.90;;;;;;5037621;28;20063;-74
2023/09/02 01:39:09;;;;;;;12.82;8.93;;;15.20;99.90;;;;;;5037697;28;20025;-73
2023/09/02 01:41:36;;;;;;;11.82;9.02;;;15.20;99.90;;;;;;5032189;28;20079;-79
2023/09/02 01:44:04;;;;;;;12.07;8.40;;;15.20;99.90;;;;;;5027284;28;20030;-78
2023/09/02 01:46:29;;;;;;;12.77;8.90;;;15.20;99.90;;;;;;5031928;28;20029;-79
2023/09/02 01:48:56;;;;;;;11.27;8.18;;;15.10;99.90;;;;;;5030594;28;20128;-79
2023/09/02 01:51:22;;;;;;;14.27;9.27;;;15.20;99.90;;;;;;5031961;28;20030;-78
2023/09/02 01:53:47;;;;;;;11.70;8.73;;;15.20;99.90;;;;;;5032146;28;20049;-78
2023/09/02 01:56:14;;;;;;;14.35;9.63;;;15.20;99.90;;;;;;5031947;28;20106;-73
2023/09/02 01:58:39;;;;;;;15.77;10.75;;;15.20;99.90;;;;;;5031331;28;20104;-73
2023/09/02 02:01:05;;;;;;;12.88;9.32;;;15.20;99.90;;;;;;5031687;28;20172;-79
2023/09/02 02:03:40;;;;;;;17.98;10.50;;;15.10;99.90;;;;;;5030878;28;20022;-73
2023/09/02 02:06:09;;;;;;;18.52;10.30;;;15.10;99.90;;;;;;5043890;28;20077;-74
2023/09/02 02:08:58;;;;;;;17.60;11.50;;;15.10;99.90;;;;;;5031371;28;20458;-74
2023/09/02 02:11:26;;;;;;;14.45;10.75;;;15.00;99.90;;;;;;5029307;28;20162;-78
2023/09/02 02:13:51;;;;;;;17.13;11.27;;;15.00;99.90;;;;;;5043286;28;20010;-75
2023/09/02 02:16:22;;;;;;;17.65;11.30;;;15.00;99.90;;;;;;5040593;28;20542;-73
2023/09/02 02:18:47;;;;;;;14.32;10.00;;;15.00;99.90;;;;;;5031570;28;20040;-80
2023/09/02 02:21:13;;;;;;;16.02;10.50;;;15.10;99.90;;;;;;5026014;28;20474;-74
2023/09/02 02:23:38;;;;;;;23.63;13.85;;;15.10;99.90;;;;;;5034495;28;20025;-79
2023/09/02 02:26:06;;;;;;;27.92;15.98;;;15.00;99.90;;;;;;5040118;28;20014;-80
2023/09/02 02:28:32;;;;;;;21.67;12.75;;;15.00;99.90;;;;;;5018866;28;20038;-79
2023/09/02 02:30:58;;;;;;;14.77;10.05;;;15.00;99.90;;;;;;5043494;28;20025;-74
2023/09/02 02:33:24;;;;;;;15.75;9.20;;;14.90;99.90;;;;;;5036786;28;20046;-80
2023/09/02 02:35:50;;;;;;;15.05;9.43;;;14.90;99.90;;;;;;5039506;28;20063;-79
2023/09/02 02:38:16;;;;;;;11.48;9.02;;;14.90;99.90;;;;;;5047740;28;20057;-73
2023/09/02 02:40:41;;;;;;;18.08;14.18;;;14.90;99.90;;;;;;5029979;28;20032;-79
2023/09/02 02:43:07;;;;;;;17.73;11.18;;;14.80;99.90;;;;;;5044460;28;20549;-78
2023/09/02 02:45:33;;;;;;;17.35;12.23;;;14.80;99.90;;;;;;5033497;28;20056;-79
2023/09/02 02:47:58;;;;;;;18.20;13.13;;;14.90;99.90;;;;;;5029807;28;20018;-79
2023/09/02 02:50:24;;;;;;;16.10;11.63;;;14.80;99.90;;;;;;5029270;28;20051;-75
2023/09/02 02:52:50;;;;;;;13.18;10.77;;;14.90;99.90;;;;;;5029417;28;20034;-79
2023/09/02 02:55:16;;;;;;;17.98;11.27;;;14.90;99.90;;;;;;5031216;28;20014;-74
2023/09/02 02:57:43;;;;;;;14.27;10.40;;;14.90;99.90;;;;;;5031146;28;20025;-73
2023/09/02 03:00:09;;;;;;;15.48;11.40;;;14.90;99.90;;;;;;5030166;28;20053;-74
2023/09/02 03:02:35;;;;;;;15.05;10.93;;;15.00;99.90;;;;;;5041687;28;20052;-79
2023/09/02 03:05:00;;;;;;;14.15;9.07;;;14.90;99.90;;;;;;5029447;28;20048;-79
2023/09/02 03:07:26;;;;;;;17.23;10.82;;;14.90;99.90;;;;;;5030943;28;20025;-80
2023/09/02 03:09:53;;;;;;;17.45;10.73;;;14.90;99.90;;;;;;5030636;28;20021;-79
2023/09/02 03:12:18;;;;;;;18.70;12.27;;;14.90;99.90;;;;;;5041241;28;20068;-79
2023/09/02 03:14:46;;;;;;;14.48;10.23;;;14.90;99.90;;;;;;5030764;28;20503;-74
2023/09/02 03:17:12;;;;;;;20.98;12.35;;;15.00;99.90;;;;;;5040416;28;20069;-77
2023/09/02 03:19:42;;;;;;;17.52;11.30;;;15.00;99.90;;;;;;5033067;28;20028;-79
2023/09/02 03:22:08;;;;;;;18.15;12.10;;;14.90;99.90;;;;;;5028417;28;20022;-78
2023/09/02 03:24:33;;;;;;;23.45;13.27;;;15.00;99.90;;;;;;5034539;28;20032;-79
2023/09/02 03:26:59;;;;;;;18.63;13.85;;;15.00;99.90;;;;;;5045957;28;20087;-74
2023/09/02 03:29:25;;;;;;;22.77;13.13;;;15.00;99.90;;;;;;5018866;28;20040;-74
2023/09/02 03:31:51;;;;;;;24.27;13.60;;;15.00;99.90;;;;;;5029968;28;20048;-79
2023/09/02 03:34:16;;;;;;;26.67;15.32;;;14.90;99.90;;;;;;5050025;28;20028;-73
2023/09/02 03:36:42;;;;;;;26.95;14.95;;;14.80;99.90;;;;;;5047763;28;20060;-80
2023/09/02 03:39:07;;;;;;;25.85;14.68;;;14.80;99.90;;;;;;5029196;28;20030;-74
2023/09/02 03:41:37;;;;;;;25.60;14.27;;;14.80;99.90;;;;;;5043664;28;20028;-79
2023/09/02 03:44:03;;;;;;;32.17;17.02;;;14.80;99.90;;;;;;5040174;28;20537;-74
2023/09/02 03:46:29;;;;;;;21.55;12.93;;;14.80;99.90;;;;;;5029979;28;20025;-79
2023/09/02 03:48:55;;;;;;;23.45;13.93;;;14.80;99.90;;;;;;5030262;28;20048;-73
2023/09/02 03:51:21;;;;;;;20.13;13.38;;;14.90;99.90;;;;;;5039253;28;20593;-73
2023/09/02 03:53:46;;;;;;;28.67;15.80;;;14.80;99.90;;;;;;5049761;28;20028;-74
2023/09/02 03:56:12;;;;;;;30.63;16.27;;;14.80;99.90;;;;;;5051814;28;20021;-73
2023/09/02 03:58:38;;;;;;;25.02;15.77;;;14.90;99.90;;;;;;5035273;28;20368;-73
2023/09/02 04:01:03;;;;;;;28.67;17.17;;;14.90;99.90;;;;;;5047742;28;20017;-73
2023/09/02 04:03:34;;;;;;;33.92;19.63;;;14.90;99.90;;;;;;5034894;28;20101;-75
2023/09/02 04:06:01;;;;;;;24.35;15.23;;;14.90;99.90;;;;;;5028819;28;20018;-79
2023/09/02 04:08:26;;;;;;;25.52;15.23;;;14.80;99.90;;;;;;5029638;28;20021;-78
2023/09/02 04:10:54;;;;;;;21.90;14.75;;;14.70;99.90;;;;;;5030131;28;20104;-73
2023/09/02 04:13:24;;;;;;;20.77;12.82;;;14.70;99.90;;;;;;5042781;28;20045;-74
2023/09/02 04:15:57;;;;;;;15.93;10.80;;;14.70;99.90;;;;;;5028434;28;20021;-78
2023/09/02 04:18:23;;;;;;;21.15;12.93;;;14.70;99.90;;;;;;5043350;28;20021;-74
2023/09/02 04:20:49;;;;;;;15.27;10.43;;;14.70;99.90;;;;;;5049445;28;20475;-78
2023/09/02 04:23:15;;;;;;;17.13;11.20;;;14.70;99.90;;;;;;5030913;28;20054;-79
2023/09/02 04:25:46;;;;;;;13.77;10.57;;;14.70;99.90;;;;;;5029882;28;20094;-74
2023/09/02 04:28:12;;;;;;;11.38;8.75;;;14.80;99.90;;;;;;5017758;28;20029;-74
2023/09/02 04:30:38;;;;;;;12.57;9.07;;;14.70;99.90;;;;;;5031218;28;20013;-74
2023/09/02 04:33:03;;;;;;;12.35;8.63;;;14.70;99.90;;;;;;5048056;28;20043;-75
2023/09/02 04:35:37;;;;;;;11.40;8.38;;;14.70;99.90;;;;;;5036432;28;20130;-79
2023/09/02 04:38:04;;;;;;;12.07;9.15;;;14.70;99.90;;;;;;5036211;28;20029;-79
2023/09/02 04:40:29;;;;;;;10.23;8.43;;;14.70;99.90;;;;;;5048944;28;20040;-74
2023/09/02 04:42:56;;;;;;;10.55;8.15;;;14.70;99.90;;;;;;5048286;28;20385;-78
2023/09/02 04:45:22;;;;;;;10.50;8.50;;;14.80;99.90;;;;;;5042156;28;20029;-79
2023/09/02 04:47:48;;;;;;;8.95;7.25;;;14.80;99.90;;;;;;5034929;28;20033;-74
2023/09/02 04:50:14;;;;;;;11.70;8.15;;;14.80;99.90;;;;;;5054594;28;20033;-74
2023/09/02 04:52:39;;;;;;;8.60;7.43;;;14.80;99.90;;;;;;5055339;28;20048;-78
2023/09/02 04:55:05;;;;;;;9.13;7.63;;;14.80;99.90;;;;;;5040307;28;20046;-73
2023/09/02 04:57:34;;;;;;;9.07;7.78;;;14.80;99.90;;;;;;5055198;28;20017;-78
2023/09/02 04:59:59;;;;;;;8.80;7.55;;;14.90;99.90;;;;;;5054433;28;20096;-78
2023/09/02 05:02:25;;;;;;;7.88;6.82;;;14.90;99.90;;;;;;5054960;28;20426;-74
2023/09/02 05:04:52;;;;;;;9.80;7.60;;;15.00;99.90;;;;;;5041795;28;20021;-78
2023/09/02 05:07:17;;;;;;;8.32;7.43;;;15.00;99.90;;;;;;5055176;28;20017;-74
2023/09/02 05:09:43;;;;;;;9.00;8.10;;;15.00;99.90;;;;;;5048203;28;20028;-79
2023/09/02 05:12:08;;;;;;;8.30;6.72;;;15.10;99.90;;;;;;5042852;28;20042;-79
2023/09/02 05:14:34;;;;;;;8.02;6.65;;;15.10;99.90;;;;;;5041040;28;20025;-74
2023/09/02 05:17:00;;;;;;;8.30;7.32;;;15.20;99.90;;;;;;5055236;28;20023;-79
2023/09/02 05:19:25;;;;;;;7.43;6.63;;;15.20;99.90;;;;;;5035831;28;20034;-74
2023/09/02 05:21:51;;;;;;;7.90;7.10;;;15.30;99.90;;;;;;5035677;28;20612;-79
2023/09/02 05:24:17;;;;;;;7.82;6.60;;;15.30;99.90;;;;;;5048436;28;20025;-74
2023/09/02 05:26:42;;;;;;;7.97;7.18;;;15.30;99.90;;;;;;5034294;28;20017;-79
2023/09/02 05:29:08;;;;;;;9.48;6.78;;;15.30;99.90;;;;;;5022075;28;20049;-74
2023/09/02 05:31:33;;;;;;;7.35;6.07;;;15.30;99.90;;;;;;5035224;28;20029;-79
2023/09/02 05:33:59;;;;;;;7.10;6.40;;;15.40;99.90;;;;;;5038478;28;20017;-74
2023/09/02 05:36:25;;;;;;;10.07;6.80;;;15.40;99.90;;;;;;5037068;28;20084;-80
2023/09/02 05:38:50;;;;;;;7.55;6.57;;;15.40;99.90;;;;;;5043918;28;20030;-80
2023/09/02 05:41:16;;;;;;;6.82;6.07;;;15.50;99.90;;;;;;5043042;28;20101;-74
2023/09/02 05:43:41;;;;;;;6.30;5.70;;;15.50;99.90;;;;;;5047082;28;20025;-80
2023/09/02 05:46:07;;;;;;;6.78;6.10;;;15.50;99.90;;;;;;5042061;28;20033;-74
2023/09/02 05:48:33;;;;;;;8.43;7.63;;;15.60;99.90;;;;;;5047658;28;20390;-79
2023/09/02 05:50:59;;;;;;;10.18;8.25;;;15.60;99.90;;;;;;5036545;28;20021;-80
2023/09/02 05:53:25;;;;;;;9.52;6.70;;;15.70;99.90;;;;;;5030434;28;20018;-79
2023/09/02 05:55:54;;;;;;;12.30;7.10;;;15.80;99.90;;;;;;5032606;28;20054;-74
2023/09/02 05:58:22;;;;;;;6.47;5.80;;;15.80;99.90;;;;;;5023905;28;20036;-74
2023/09/02 06:00:48;;;;;;;5.85;5.07;;;15.90;99.90;;;;;;5029659;28;20022;-74
2023/09/02 06:03:13;;;;;;;6.28;5.68;;;16.00;99.90;;;;;;5031364;28;20059;-74
2023/09/02 06:05:39;;;;;;;6.70;6.05;;;16.20;99.90;;;;;;5039984;28;20024;-74
2023/09/02 06:08:04;;;;;;;6.53;5.57;;;16.30;99.90;;;;;;5030244;28;20386;-74
2023/09/02 06:10:30;;;;;;;8.27;6.32;;;16.30;99.90;;;;;;5033009;28;20022;-79
2023/09/02 06:12:56;;;;;;;7.13;5.68;;;16.30;99.90;;;;;;5039140;28;20033;-80
2023/09/02 06:15:21;;;;;;;6.75;4.82;;;16.40;99.90;;;;;;5036316;28;20026;-74
2023/09/02 06:17:47;;;;;;;6.88;5.10;;;16.40;99.90;;;;;;5033402;28;20009;-74
2023/09/02 06:20:16;;;;;;;5.50;5.00;;;16.50;99.90;;;;;;5033984;28;20017;-80
2023/09/02 06:22:42;;;;;;;8.63;5.35;;;16.60;99.90;;;;;;5029300;28;20049;-75
2023/09/02 06:25:08;;;;;;;6.38;5.13;;;16.60;99.90;;;;;;5031308;28;20017;-75
2023/09/02 06:27:34;;;;;;;4.68;3.75;;;16.70;99.90;;;;;;5026043;28;20060;-75
2023/09/02 06:29:59;;;;;;;5.63;4.18;;;16.70;99.90;;;;;;5030552;28;20045;-81
2023/09/02 06:32:25;;;;;;;4.45;3.58;;;16.60;99.90;;;;;;5038793;28;20473;-81
2023/09/02 06:34:53;;;;;;;5.70;3.88;;;16.60;99.90;;;;;;5033125;28;20062;-82
2023/09/02 06:37:19;;;;;;;5.32;4.25;;;16.60;99.90;;;;;;5025506;28;20148;-82
2023/09/02 06:39:45;;;;;;;5.82;5.00;;;16.60;99.90;;;;;;5028724;28;20124;-74
2023/09/02 06:42:10;;;;;;;4.13;3.72;;;16.70;99.90;;;;;;5029770;28;20026;-75
2023/09/02 06:44:36;;;;;;;4.25;3.85;;;16.70;99.90;;;;;;5022799;28;20043;-75
2023/09/02 06:47:03;;;;;;;4.47;4.07;;;16.80;99.90;;;;;;5019044;28;20093;-75
2023/09/02 06:49:32;;;;;;;4.53;4.10;;;17.00;99.90;;;;;;5036497;28;20064;-82
2023/09/02 06:51:57;;;;;;;3.17;2.63;;;17.00;99.90;;;;;;5022331;28;20059;-82
2023/09/02 06:54:26;;;;;;;3.67;2.55;;;17.00;99.90;;;;;;5040686;28;20033;-82
2023/09/02 06:56:52;;;;;;;5.10;3.67;;;17.00;99.90;;;;;;5026542;28;20021;-82
2023/09/02 06:59:17;;;;;;;3.13;2.72;;;17.00;99.90;;;;;;5032596;28;20009;-83
2023/09/02 07:01:43;;;;;;;3.85;3.55;;;17.00;99.90;;;;;;5032242;28;20394;-82
2023/09/02 07:04:08;;;;;;;4.38;3.00;;;17.00;99.90;;;;;;5026492;28;20041;-80
2023/09/02 07:06:34;;;;;;;6.00;3.30;;;17.00;99.90;;;;;;5020776;28;20037;-76
2023/09/02 07:09:00;;;;;;;3.00;2.70;;;17.00;99.90;;;;;;5017845;28;20021;-75
2023/09/02 07:11:28;;;;;;;2.75;2.30;;;17.10;99.90;;;;;;5028327;28;20196;-75
2023/09/02 07:13:54;;;;;;;2.80;2.60;;;17.10;99.90;;;;;;5035219;28;20026;-76
2023/09/02 07:16:20;;;;;;;3.90;3.50;;;17.20;99.90;;;;;;5030396;28;20033;-75
2023/09/02 07:18:45;;;;;;;2.97;2.78;;;17.30;99.90;;;;;;5032962;28;20034;-74
2023/09/02 07:21:11;;;;;;;2.70;2.50;;;17.40;99.90;;;;;;5030888;28;20467;-75
2023/09/02 07:23:37;;;;;;;2.60;2.40;;;17.50;99.90;;;;;;5022601;28;20014;-83
2023/09/02 07:26:06;;;;;;;3.45;2.17;;;17.80;99.90;;;;;;5022020;28;20040;-75
2023/09/02 07:28:32;;;;;;;2.50;2.30;;;17.90;99.90;;;;;;5022961;28;20037;-75
2023/09/02 07:31:01;;;;;;;1.70;1.60;;;17.90;99.90;;;;;;5023325;28;20029;-83
2023/09/02 07:33:27;;;;;;;4.03;1.90;;;17.80;99.90;;;;;;5017235;28;20129;-75
2023/09/02 07:35:53;;;;;;;2.15;1.50;;;17.80;99.90;;;;;;5030814;28;20352;-75
2023/09/02 07:38:19;;;;;;;1.85;1.75;;;17.80;99.90;;;;;;5030671;28;20036;-75
2023/09/02 07:40:44;;;;;;;3.83;2.10;;;17.70;99.90;;;;;;5022390;28;20037;-75
2023/09/02 07:43:10;;;;;;;3.05;1.98;;;17.80;99.90;;;;;;5021683;28;20394;-75
2023/09/02 07:45:36;;;;;;;2.13;1.92;;;17.90;99.90;;;;;;5032905;28;20045;-83
2023/09/02 07:48:02;;;;;;;1.85;1.75;;;17.90;99.90;;;;;;5029706;28;20140;-82
2023/09/02 07:50:27;;;;;;;2.20;1.80;;;17.90;99.90;;;;;;5043921;28;20104;-82
2023/09/02 07:52:53;;;;;;;3.13;2.30;;;17.80;99.90;;;;;;5026872;28;20038;-83
2023/09/02 07:55:18;;;;;;;2.60;2.40;;;17.70;99.90;;;;;;5032459;28;20105;-82
2023/09/02 07:57:44;;;;;;;2.30;2.10;;;17.60;99.90;;;;;;5033389;28;20451;-75
2023/09/02 08:00:10;;;;;;;3.15;2.63;;;17.80;99.90;;;;;;5030149;28;20056;-74
2023/09/02 08:02:36;;;;;;;2.95;2.33;;;17.80;99.90;;;;;;5027283;28;20467;-76
2023/09/02 08:05:01;;;;;;;2.13;1.92;;;17.80;99.90;;;;;;5028765;28;20062;-76
2023/09/02 08:07:27;;;;;;;1.60;1.50;;;17.90;99.90;;;;;;5028187;28;20064;-75
2023/09/02 08:09:53;;;;;;;1.90;1.80;;;18.10;99.90;;;;;;5041858;28;20221;-75
2023/09/02 08:12:18;;;;;;;1.73;1.63;;;18.30;99.90;;;;;;5030778;28;20040;-76
2023/09/02 08:14:44;;;;;;;1.80;1.70;;;18.30;99.90;;;;;;5029499;28;20052;-75
2023/09/02 08:17:09;;;;;;;1.70;1.58;;;18.20;99.90;;;;;;5024490;28;20017;-83
2023/09/02 08:19:36;;;;;;;1.70;1.60;;;18.20;99.90;;;;;;5024786;28;20049;-83
2023/09/02 08:22:01;;;;;;;1.70;1.60;;;18.40;99.90;;;;;;5030645;28;20029;-75
2023/09/02 08:24:27;;;;;;;1.90;1.60;;;18.50;99.90;;;;;;5033214;28;20494;-75
2023/09/02 08:26:52;;;;;;;1.85;1.75;;;18.40;99.90;;;;;;5028308;28;20022;-83
2023/09/02 08:29:18;;;;;;;4.07;2.08;;;18.50;99.90;;;;;;5022796;28;20017;-83
2023/09/02 08:31:43;;;;;;;1.80;1.70;;;18.50;99.90;;;;;;5043799;28;20048;-76
2023/09/02 08:34:09;;;;;;;2.38;1.55;;;18.60;99.90;;;;;;5027714;28;20026;-75
2023/09/02 08:36:35;;;;;;;1.65;1.20;;;18.70;99.90;;;;;;5027501;28;20073;-75
2023/09/02 08:39:00;;;;;;;7.60;5.53;;;18.80;99.90;;;;;;5033881;28;20026;-83
2023/09/02 08:41:30;;;;;;;22.77;18.10;;;18.90;99.90;;;;;;5028463;28;20522;-83
2023/09/02 08:44:00;;;;;;;24.92;21.30;;;19.00;99.90;;;;;;5033929;28;20342;-82
2023/09/02 08:46:29;;;;;;;67.25;55.05;;;19.20;99.90;;;;;;5034574;28;20033;-75
2023/09/02 08:48:58;;;;;;;2.22;1.98;;;19.30;99.90;;;;;;5035866;28;20029;-76
2023/09/02 08:51:25;;;;;;;2.70;2.03;;;19.20;99.90;;;;;;5029250;28;20029;-76
2023/09/02 08:53:53;;;;;;;1.98;1.67;;;19.30;99.90;;;;;;5021567;28;20455;-83
2023/09/02 08:56:19;;;;;;;1.88;1.77;;;19.30;99.90;;;;;;5025718;28;20049;-83
2023/09/02 08:58:46;;;;;;;1.75;1.65;;;19.30;99.90;;;;;;5026142;28;20108;-76
2023/09/02 09:01:19;;;;;;;2.33;1.80;;;19.50;99.90;;;;;;5028800;28;20033;-83
2023/09/02 09:03:55;;;;;;;2.22;2.03;;;19.40;99.90;;;;;;5032721;28;20018;-83
2023/09/02 09:06:25;;;;;;;14.55;10.00;;;19.50;99.90;;;;;;5026240;28;20030;-83
2023/09/02 09:08:54;;;;;;;43.47;27.08;;;19.50;99.90;;;;;;5037448;28;20017;-82
2023/09/02 09:11:22;;;;;;;30.38;19.27;;;19.60;99.90;;;;;;5044798;28;20013;-82
2023/09/02 09:13:51;;;;;;;34.78;16.48;;;19.50;99.90;;;;;;5043726;28;20028;-83
2023/09/02 09:16:21;;;;;;;13.15;6.07;;;19.40;99.90;;;;;;5024184;28;20032;-83
2023/09/02 09:18:50;;;;;;;12.88;6.55;;;19.40;99.90;;;;;;5039700;28;20025;-75
2023/09/02 09:21:16;;;;;;;95.40;44.10;;;19.50;99.90;;;;;;5034110;28;20045;-76
2023/09/02 09:23:42;;;;;;;23.63;11.63;;;19.40;99.90;;;;;;5050659;28;20021;-82
2023/09/02 09:26:10;;;;;;;7.63;4.10;;;19.60;99.90;;;;;;5042198;28;20025;-75
2023/09/02 09:28:52;;;;;;;1.70;1.60;;;19.60;99.90;;;;;;5051002;27;20062;-75
2023/09/02 09:31:18;;;;;;;;;;;19.50;99.90;;;;;;5032226;28;20551;-75
2023/09/02 09:33:50;;;;;;;4.20;2.83;;;19.50;99.90;;;;;;5031003;28;19967;-83
2023/09/02 09:36:17;;;;;;;3.17;2.00;;;19.80;99.90;;;;;;5008596;28;20049;-84
2023/09/02 09:38:42;;;;;;;6.93;3.35;;;20.00;99.90;;;;;;5012517;28;20024;-82
2023/09/02 09:41:09;;;;;;;16.35;7.25;;;20.00;99.90;;;;;;5027911;28;20022;-83
2023/09/02 09:43:37;;;;;;;57.58;26.27;;;20.10;99.90;;;;;;5029998;28;20036;-77
2023/09/02 09:46:03;;;;;;;6.07;3.10;;;20.20;99.90;;;;;;5032791;28;20041;-76
2023/09/02 09:48:30;;;;;;;2.67;1.85;;;20.10;99.90;;;;;;5031119;28;20025;-76
2023/09/02 09:50:55;;;;;;;3.72;1.52;;;20.10;99.90;;;;;;5021940;28;20026;-76
2023/09/02 09:53:21;;;;;;;2.30;1.80;;;20.10;99.90;;;;;;5031127;28;20211;-76
2023/09/02 09:55:47;;;;;;;13.93;5.93;;;20.00;99.90;;;;;;5031471;28;20044;-76
2023/09/02 09:58:22;;;;;;;15.70;7.35;;;20.10;99.90;;;;;;5031630;28;20108;-76
2023/09/02 10:00:54;;;;;;;2.85;2.25;;;20.40;99.90;;;;;;5031685;28;20386;-76
2023/09/02 10:03:29;;;;;;;3.90;2.85;;;20.20;99.90;;;;;;5008608;28;20034;-76
2023/09/02 10:05:59;;;;;;;7.82;4.00;;;20.20;99.90;;;;;;5026510;28;20094;-76
2023/09/02 10:08:25;;;;;;;17.05;10.43;;;20.10;99.90;;;;;;5028904;28;20021;-76
2023/09/02 10:10:51;;;;;;;52.83;32.40;;;20.00;99.90;;;;;;5032285;28;20017;-76
2023/09/02 10:13:18;;;;;;;12.05;5.22;;;20.30;99.90;;;;;;5033162;28;20041;-77
2023/09/02 10:15:44;;;;;;;3.47;2.28;;;20.30;99.90;;;;;;5028175;28;20018;-77
2023/09/02 10:18:10;;;;;;;10.55;4.78;;;20.40;99.90;;;;;;5036921;28;20022;-77
2023/09/02 10:20:36;;;;;;;4.70;2.92;;;20.70;99.90;;;;;;5034570;28;20075;-77
2023/09/02 10:23:07;;;;;;;2.95;2.45;;;20.70;99.90;;;;;;5026304;28;20018;-75
2023/09/02 10:26:00;;;;;;;2.55;2.35;;;21.00;99.90;;;;;;5017615;28;20026;-76
2023/09/02 10:28:37;;;;;;;6.00;3.78;;;20.90;99.90;;;;;;5027132;28;20072;-75
2023/09/02 10:31:22;;;;;;;4.68;2.88;;;21.40;99.90;;;;;;5031089;28;20026;-75
2023/09/02 10:34:01;;;;;;;10.38;9.32;;;21.40;96.40;;;;;;5029609;28;20125;-77
2023/09/02 10:36:28;;;;;;;7.22;4.60;;;21.80;99.90;;;;;;5034834;28;20042;-77
2023/09/02 10:38:57;;;;;;;13.02;6.22;;;22.10;99.90;;;;;;5043320;28;20025;-77
2023/09/02 10:41:24;;;;;;;3.15;2.85;;;22.40;98.30;;;;;;5022940;28;20021;-77
2023/09/02 10:43:50;;;;;;;3.50;3.20;;;22.30;86.60;;;;;;5030888;28;20017;-77
2023/09/02 10:46:16;;;;;;;3.25;2.70;;;22.10;86.90;;;;;;5032898;28;20067;-78
2023/09/02 10:48:44;;;;;;;2.38;2.17;;;21.90;89.20;;;;;;5026505;28;20029;-77
2023/09/02 10:51:13;;;;;;;1.23;1.17;;;21.60;88.30;;;;;;5032914;28;20023;-78
2023/09/02 10:53:50;;;;;;;1.05;1.05;;;21.60;86.40;;;;;;5049905;28;20045;-77
2023/09/02 10:56:33;;;;;;;0.68;0.68;;;21.70;88.40;;;;;;5032757;28;20390;-77
2023/09/02 10:59:03;;;;;;;1.00;0.90;;;21.80;82.60;;;;;;5040523;28;20096;-77
2023/09/02 11:01:46;;;;;;;0.93;0.70;;;21.80;81.30;;;;;;5031916;28;20021;-78
2023/09/02 11:04:13;;;;;;;3.63;2.95;;;21.80;81.50;;;;;;5034804;28;20538;-78
2023/09/02 11:07:16;;;;;;;4.97;3.33;;;21.70;84.50;;;;;;5023392;28;20026;-78
2023/09/02 11:09:55;;;;;;;1.38;1.38;;;21.70;87.50;;;;;;5028300;28;20036;-78
2023/09/02 11:12:21;;;;;;;1.52;1.42;;;22.00;86.40;;;;;;5032218;28;20038;-78
2023/09/02 11:15:05;;;;;;;0.98;0.80;;;22.20;84.90;;;;;;5038879;28;20065;-77
2023/09/02 11:17:30;;;;;;;3.55;2.63;;;21.70;73.30;;;;;;5027524;28;20170;-78
2023/09/02 11:19:58;;;;;;;3.17;2.97;;;21.50;91.70;;;;;;5032082;28;20546;-77
2023/09/02 11:22:53;;;;;;;3.58;3.28;;;21.20;95.10;;;;;;5036474;28;20040;-78
2023/09/02 11:25:39;;;;;;;3.42;3.13;;;21.00;99.90;;;;;;5027996;28;20014;-78
2023/09/02 11:28:24;;;;;;;3.55;3.25;;;20.90;99.90;;;;;;5014176;28;20352;-75
2023/09/02 11:31:10;;;;;;;2.90;2.70;;;20.60;99.40;;;;;;5030505;28;20453;-76
2023/09/02 11:33:40;;;;;;;3.85;3.55;;;20.50;99.90;;;;;;5041638;28;20068;-75
2023/09/02 11:36:10;;;;;;;3.42;3.22;;;20.40;99.90;;;;;;5027221;28;20044;-75
2023/09/02 11:38:35;;;;;;;6.45;4.70;;;20.30;99.90;;;;;;5033062;28;20061;-75
2023/09/02 11:41:01;;;;;;;3.97;3.47;;;20.30;99.90;;;;;;5034625;28;20052;-75
2023/09/02 11:43:32;;;;;;;3.33;3.03;;;20.20;99.90;;;;;;5035010;28;20032;-78
2023/09/02 11:45:59;;;;;;;3.60;3.30;;;20.20;99.90;;;;;;5034015;28;20469;-78
2023/09/02 11:48:28;;;;;;;3.50;3.30;;;20.10;99.90;;;;;;5030236;28;20030;-78
2023/09/02 11:50:58;;;;;;;3.60;3.30;;;20.10;99.90;;;;;;5031949;28;20044;-78
2023/09/02 11:53:27;;;;;;;3.88;3.45;;;20.20;99.90;;;;;;5029153;28;20063;-77
2023/09/02 11:55:53;;;;;;;3.88;3.58;;;20.20;99.90;;;;;;5015911;28;20037;-77
2023/09/02 11:58:19;;;;;;;4.05;3.55;;;20.20;99.90;;;;;;5030507;28;20026;-77
2023/09/02 12:00:46;;;;;;;4.97;4.20;;;20.20;99.90;;;;;;5015955;28;20021;-78
2023/09/02 12:03:14;;;;;;;3.70;3.40;;;20.10;99.90;;;;;;5039144;28;20017;-74
2023/09/02 12:05:54;;;;;;;4.22;3.92;;;20.10;99.90;;;;;;5029732;28;20024;-77
2023/09/02 12:08:20;;;;;;;4.60;4.20;;;20.20;99.90;;;;;;5030055;28;20052;-77
2023/09/02 12:10:46;;;;;;;4.78;4.38;;;20.20;99.90;;;;;;5020417;28;20053;-77
2023/09/02 12:13:13;;;;;;;5.68;3.90;;;20.20;99.90;;;;;;5019920;28;20041;-82
2023/09/02 12:15:38;;;;;;;4.72;4.32;;;20.40;99.90;;;;;;5021326;28;20032;-82
2023/09/02 12:18:04;;;;;;;4.97;4.57;;;20.50;99.90;;;;;;5029193;28;20021;-81
2023/09/02 12:20:31;;;;;;;6.88;4.43;;;20.50;99.90;;;;;;5009538;28;20083;-77
2023/09/02 12:22:57;;;;;;;4.95;4.45;;;20.50;99.90;;;;;;5014607;28;20070;-81
2023/09/02 12:25:24;;;;;;;5.68;4.28;;;20.80;99.90;;;;;;5018424;28;20026;-81
2023/09/02 12:27:50;;;;;;;4.95;4.55;;;21.10;99.90;;;;;;5010504;28;20037;-77
2023/09/02 12:30:27;;;;;;;4.70;4.30;;;21.10;99.90;;;;;;5006676;28;20018;-78
2023/09/02 12:32:55;;;;;;;5.25;4.45;;;20.90;94.60;;;;;;5010733;28;20041;-77
2023/09/02 12:35:21;;;;;;;4.35;3.83;;;20.90;99.70;;;;;;5019974;28;20030;-81
2023/09/02 12:38:06;;;;;;;4.20;3.90;;;20.80;95.90;;;;;;5032513;28;20092;-81
2023/09/02 12:40:33;;;;;;;4.45;4.15;;;20.90;95.70;;;;;;5036159;28;20026;-77
2023/09/02 12:43:00;;;;;;;4.22;3.90;;;21.10;96.90;;;;;;5016131;28;20018;-77